• Join FlightAware (Why Join?)
  • Login
  • US Flag 
02:22AM EST


 

Airport Tracker/Info


-or-


 

Live Flight TrackerFlight Track Log ✈ SWA2681 ✈ 07-Jul-2013 ✈ KAUS - KDAL

Flight Track Log - Related Links

Times and Time Zones

All times are in EDT time to prevent confusion due to time zone crossing. See the SWA2681 flight status page for this flight to view local times or setup timezone preferences in your user account.

Time Position Orientation Groundspeed Altitude Reporting Facility
EDT Latitude Longitude Course Direction KTS MPH feet Rate Location/Type
10:47PM 30.1278 -97.5989 41° Northeast 220 253 6,400  Level Houston Center
10:49PM 30.1961 -97.5589 27° Northeast 272 313 10,500 3,240 Climbing Houston Center
10:50PM 30.2778 -97.5061 29° Northeast 324 373 13,000 3,300 Climbing Houston Center
10:51PM 30.3531 -97.4231 44° Northeast 369 425 17,300 4,140 Climbing Houston Center
10:52PM 30.6208 -97.2250 60° Northeast  Level FlightAware Approximate
10:52PM 30.4258 -97.3469 42° Northeast 355 409 21,500  Level Houston Center
10:53PM 30.6777 -97.1556 41° Northeast  Level FlightAware Approximate
10:53PM 30.5028 -97.2650 43° Northeast 367 422 22,000  Level Houston Center
10:54PM 30.5889 -97.1725 43° Northeast 415 478 22,000  Level Houston Center
10:55PM 30.6753 -97.0806 42° Northeast 418 481 22,000  Level Houston Center
10:56PM 30.7603 -96.9900 42° Northeast 416 479 22,000  Level Houston Center
10:57PM 30.8444 -96.8997 43° Northeast 410 472 22,000  Level Houston Center
10:58PM 30.9322 -96.8078 42° Northeast 419 482 22,000  Level Houston Center
10:59PM 31.0192 -96.7144 43° Northeast 420 483 22,000  Level Houston Center
11:00PM 31.1225 -96.6036 43° Northeast 428 493 22,000  Level Houston Center
11:01PM 31.2086 -96.5106 43° Northeast 423 487 22,000  Level Houston Center
11:02PM 31.3092 -96.4394 31° Northeast 430 495 22,000  Level Houston Center
11:03PM 31.4317 -96.4311 North 434 499 22,000  Level Houston Center
11:04PM 31.5542 -96.4242 North 437 503 22,000  Level Houston Center
11:05PM 31.6764 -96.4169 North 435 501 22,000  Level Houston Center
11:06PM 31.7986 -96.4092 North 435 501 22,000 -660 Level Houston Center
11:07PM 31.9211 -96.4019 North 436 502 20,700 -2,220 Descending Houston Center
11:08PM 32.0383 -96.3942 North 425 489 17,500 -3,180 Descending Houston Center
11:09PM 32.1514 -96.3875 North 410 472 14,300 -3,120 Descending Houston Center
11:10PM 32.2603 -96.3803 North 393 452 11,300 -1,860 Descending Houston Center
11:11PM 32.3928 -96.3750 North 342 394 9,900 -1,020 Descending Fort Worth Center
11:12PM 32.4639 -96.3867 352° North 299 344 9,000 -480 Descending Fort Worth Center
11:13PM 32.5414 -96.4325 334° Northwest 280 322 9,000 -480 Level Fort Worth Center
11:14PM 32.6064 -96.4714 333° Northwest 280 322 8,100 -1,260 Descending Fort Worth Center
11:15PM 32.6861 -96.5222 332° Northwest 292 336 6,500 -1,500 Descending Fort Worth Center
11:16PM 32.7408 -96.5761 320° Northwest 287 330 5,100 -1,500 Descending Fort Worth Center
11:17PM 32.8081 -96.6422 320° Northwest 287 330 3,500 -1,080 Descending Fort Worth Center
11:18PM 32.8647 -96.6961 321° Northwest 287 330 3,000 -300 Descending Fort Worth Center
11:19PM 32.9172 -96.7725 309° West 282 325 3,000 -120 Level Fort Worth Center
11:20PM 32.9333 -96.8333 288° West 209 241 2,800 -600 Descending Dallas / Fort Worth TRACON
11:21PM 32.9000 -96.9000 239° Southwest 177 204 1,800 -900 Descending Dallas / Fort Worth TRACON
11:22PM 32.8667 -96.8833 157° South 116 133 1,000 -840 Descending Dallas / Fort Worth TRACON
11:25PM 32.8471 -96.8518 301° West  Level Estimated